createdAt,value
2023-04-19T00:00:44.242Z,96403.06
2023-04-19T00:03:11.532Z,96411.00
2023-04-19T00:05:41.556Z,96407.72
2023-04-19T00:08:08.263Z,96404.72
2023-04-19T00:10:36.037Z,96410.97
2023-04-19T00:13:02.789Z,96405.78
2023-04-19T00:15:29.217Z,96398.41
2023-04-19T00:17:56.514Z,96405.66
2023-04-19T00:20:23.037Z,96407.16
2023-04-19T00:22:49.464Z,96402.84
2023-04-19T00:25:16.018Z,96402.53
2023-04-19T00:27:42.510Z,96406.06
2023-04-19T00:30:09.353Z,96404.97
2023-04-19T00:32:35.840Z,96404.72
2023-04-19T00:35:02.296Z,96394.38
2023-04-19T00:37:28.818Z,96398.72
2023-04-19T00:39:55.368Z,96403.88
2023-04-19T00:42:21.825Z,96396.78
2023-04-19T00:44:48.308Z,96401.72
2023-04-19T00:47:15.007Z,96397.34
2023-04-19T00:49:41.617Z,96386.97
2023-04-19T00:52:08.470Z,96394.63
2023-04-19T00:54:35.553Z,96393.56
2023-04-19T00:57:02.018Z,96404.16
2023-04-19T00:59:29.161Z,96394.13
2023-04-19T01:01:55.712Z,96397.97
2023-04-19T01:04:23.089Z,96387.63
2023-04-19T01:06:50.545Z,96389.53
2023-04-19T01:09:17.079Z,96394.78
2023-04-19T01:11:43.743Z,96388.53
2023-04-19T01:14:10.310Z,96390.97
2023-04-19T01:16:36.908Z,96395.38
2023-04-19T01:19:03.534Z,96391.28
2023-04-19T01:21:30.591Z,96384.72
2023-04-19T01:23:57.308Z,96384.44
2023-04-19T01:26:25.259Z,96393.75
2023-04-19T01:28:51.712Z,96387.22
2023-04-19T01:31:18.323Z,96376.31
2023-04-19T01:33:44.853Z,96383.66
2023-04-19T01:36:11.342Z,96391.06
2023-04-19T01:38:37.814Z,96384.94
2023-04-19T01:41:04.333Z,96386.34
2023-04-19T01:43:30.803Z,96376.31
2023-04-19T01:45:57.248Z,96377.91
2023-04-19T01:48:23.756Z,96393.19
2023-04-19T01:50:50.247Z,96380.66
2023-04-19T01:53:16.699Z,96379.53
2023-04-19T01:55:43.667Z,96386.09
2023-04-19T01:58:10.225Z,96377.63
2023-04-19T02:00:36.684Z,96374.09
2023-04-19T02:03:03.482Z,96376.47
2023-04-19T02:05:30.247Z,96379.97
2023-04-19T02:07:56.697Z,96372.91
2023-04-19T02:10:23.263Z,96369.13
2023-04-19T02:12:49.779Z,96370.78
2023-04-19T02:15:16.219Z,96364.22
2023-04-19T02:17:43.380Z,96367.75
2023-04-19T02:20:10.834Z,96361.22
2023-04-19T02:22:37.360Z,96369.34
2023-04-19T02:25:04.554Z,96372.13
2023-04-19T02:27:31.180Z,96366.16
2023-04-19T02:29:57.688Z,96371.59
2023-04-19T02:32:24.377Z,96372.19
2023-04-19T02:34:50.846Z,96371.38
2023-04-19T02:37:18.357Z,96365.91
2023-04-19T02:39:45.964Z,96365.91
2023-04-19T02:42:12.579Z,96362.66
2023-04-19T02:44:39.078Z,96368.63
2023-04-19T02:47:05.544Z,96359.13
2023-04-19T02:49:36.973Z,96364.84
2023-04-19T02:52:03.668Z,96357.13
2023-04-19T02:54:30.181Z,96358.81
2023-04-19T02:56:57.715Z,96361.56
2023-04-19T02:59:24.269Z,96361.56
2023-04-19T03:01:50.914Z,96353.38
2023-04-19T03:04:18.060Z,96352.31
2023-04-19T03:06:44.755Z,96354.25
2023-04-19T03:09:11.369Z,96354.25
2023-04-19T03:11:38.683Z,96349.66
2023-04-19T03:14:05.216Z,96353.50
2023-04-19T03:16:31.661Z,96353.47
2023-04-19T03:18:58.129Z,96346.41
2023-04-19T03:21:27.473Z,96351.31
2023-04-19T03:23:54.811Z,96350.00
2023-04-19T03:26:21.443Z,96351.88
2023-04-19T03:28:48.572Z,96351.28
2023-04-19T03:31:15.271Z,96355.66
2023-04-19T03:33:41.774Z,96354.03
2023-04-19T03:36:08.474Z,96352.41
2023-04-19T03:38:35.091Z,96356.50
2023-04-19T03:41:01.584Z,96352.97
2023-04-19T03:43:28.132Z,96350.81
2023-04-19T03:45:54.655Z,96351.63
2023-04-19T03:48:21.098Z,96343.22
2023-04-19T03:50:47.622Z,96333.66
2023-04-19T03:53:14.066Z,96344.03
2023-04-19T03:55:40.541Z,96338.81
2023-04-19T03:58:07.162Z,96341.81
2023-04-19T04:00:33.627Z,96346.97
2023-04-19T04:03:00.423Z,96348.88
2023-04-19T04:05:28.623Z,96351.63
2023-04-19T04:07:56.323Z,96352.50
2023-04-19T04:10:22.793Z,96348.69
2023-04-19T04:12:49.247Z,96355.28
2023-04-19T04:15:15.818Z,96347.88
2023-04-19T04:17:42.313Z,96352.00
2023-04-19T04:20:09.831Z,96351.16
2023-04-19T04:22:39.825Z,96349.25
2023-04-19T04:25:06.860Z,96351.44
2023-04-19T04:27:33.362Z,96353.06
2023-04-19T04:30:01.622Z,96356.66
2023-04-19T04:32:28.091Z,96363.72
2023-04-19T04:34:54.563Z,96359.09
2023-04-19T04:37:20.987Z,96367.78
2023-04-19T04:39:47.443Z,96366.44
2023-04-19T04:42:13.935Z,96364.78
2023-04-19T04:44:41.497Z,96365.56
2023-04-19T04:47:07.995Z,96370.44
2023-04-19T04:49:34.556Z,96350.25
2023-04-19T04:52:01.044Z,96359.78
2023-04-19T04:54:27.818Z,96361.09
2023-04-19T04:56:54.317Z,96354.25
2023-04-19T04:59:20.922Z,96366.22
2023-04-19T05:01:47.629Z,96356.09
2023-04-19T05:04:14.402Z,96361.56
2023-04-19T05:06:41.192Z,96350.94
2023-04-19T05:09:08.126Z,96352.03
2023-04-19T05:11:34.611Z,96356.66
2023-04-19T05:14:01.230Z,96350.13
2023-04-19T05:16:27.830Z,96345.19
2023-04-19T05:18:54.270Z,96344.72
2023-04-19T05:21:21.702Z,96351.25
2023-04-19T05:23:48.371Z,96351.28
2023-04-19T05:26:15.651Z,96353.44
2023-04-19T05:28:45.386Z,96359.19
2023-04-19T05:31:12.384Z,96350.75
2023-04-19T05:33:38.882Z,96359.44
2023-04-19T05:36:05.560Z,96347.97
2023-04-19T05:38:31.992Z,96354.78
2023-04-19T05:40:58.949Z,96353.66
2023-04-19T05:43:25.479Z,96357.72
2023-04-19T05:45:51.974Z,96356.59
2023-04-19T05:48:18.432Z,96351.88
2023-04-19T05:50:45.009Z,96356.47
2023-04-19T05:53:11.766Z,96353.75
2023-04-19T05:55:38.269Z,96355.56
2023-04-19T05:58:04.904Z,96360.16
2023-04-19T06:00:31.406Z,96356.34
2023-04-19T06:02:58.090Z,96359.03
2023-04-19T06:05:24.775Z,96364.44
2023-04-19T06:07:55.700Z,96371.19
2023-04-19T06:10:36.756Z,96365.44
2023-04-19T06:13:07.591Z,96365.69
2023-04-19T06:15:34.170Z,96374.13
2023-04-19T06:18:00.766Z,96362.91
2023-04-19T06:20:27.294Z,96364.56
2023-04-19T06:22:53.795Z,96370.00
2023-04-19T06:25:20.700Z,96369.72
2023-04-19T06:27:47.156Z,96377.91
2023-04-19T06:30:13.756Z,96376.81
2023-04-19T06:32:40.396Z,96377.28
2023-04-19T06:35:07.505Z,96378.34
2023-04-19T06:37:34.590Z,96382.94
2023-04-19T06:40:01.915Z,96379.03
2023-04-19T06:42:28.418Z,96374.97
2023-04-19T06:44:57.103Z,96376.03
2023-04-19T06:47:23.725Z,96372.72
2023-04-19T06:49:50.328Z,96374.06
2023-04-19T06:52:16.913Z,96375.34
2023-04-19T06:54:48.056Z,96380.50
2023-04-19T06:57:14.560Z,96378.34
2023-04-19T06:59:41.120Z,96381.25
2023-04-19T07:02:08.158Z,96382.66
2023-04-19T07:04:34.934Z,96376.38
2023-04-19T07:07:01.491Z,96379.63
2023-04-19T07:09:28.498Z,96378.00
2023-04-19T07:11:55.705Z,96378.25
2023-04-19T07:14:23.646Z,96366.44
2023-04-19T07:16:50.956Z,96366.91
2023-04-19T07:19:20.512Z,96369.91
2023-04-19T07:21:47.072Z,96364.03
2023-04-19T07:24:13.676Z,96363.50
2023-04-19T07:26:40.596Z,96369.84
2023-04-19T07:29:07.113Z,96367.34
2023-04-19T07:31:33.676Z,96369.47
2023-04-19T07:34:00.160Z,96365.34
2023-04-19T07:36:26.969Z,96364.69
2023-04-19T07:38:53.655Z,96368.47
2023-04-19T07:41:20.706Z,96365.88
2023-04-19T07:43:47.292Z,96364.84
2023-04-19T07:46:16.345Z,96361.22
2023-04-19T07:48:43.038Z,96365.38
2023-04-19T07:51:14.794Z,96362.19
2023-04-19T07:53:44.146Z,96353.31
2023-04-19T07:56:12.919Z,96352.66
2023-04-19T07:58:41.247Z,96361.38
2023-04-19T08:01:07.998Z,96361.59
2023-04-19T08:03:35.336Z,96354.94
2023-04-19T08:06:03.141Z,96352.84
2023-04-19T08:08:29.606Z,96351.19
2023-04-19T08:10:56.038Z,96350.66
2023-04-19T08:13:22.603Z,96354.34
2023-04-19T08:18:18.588Z,96353.31
2023-04-19T08:20:47.302Z,96354.72
2023-04-19T08:23:22.948Z,96356.94
2023-04-19T08:25:54.253Z,96352.63
2023-04-19T08:28:20.788Z,96361.81
2023-04-19T08:30:47.562Z,96356.25
2023-04-19T08:33:14.163Z,96356.78
2023-04-19T08:35:41.707Z,96351.63
2023-04-19T08:38:08.656Z,96346.00
2023-04-19T08:40:35.623Z,96337.91
2023-04-19T08:43:06.516Z,96340.16
2023-04-19T08:45:33.309Z,96344.81
2023-04-19T08:48:02.518Z,96344.13
2023-04-19T08:50:37.110Z,96346.00
2023-04-19T08:55:51.003Z,96356.97
2023-04-19T08:58:37.060Z,96336.00
2023-04-19T09:01:22.909Z,96339.53
2023-04-19T09:04:07.224Z,96331.59
2023-04-19T09:06:43.699Z,96325.91
2023-04-19T09:09:35.376Z,96328.94
2023-04-19T09:12:20.317Z,96333.69
2023-04-19T09:15:00.600Z,96321.59
2023-04-19T09:17:28.765Z,96330.63
2023-04-19T09:19:55.465Z,96327.47
2023-04-19T09:22:22.030Z,96316.09
2023-04-19T09:27:26.984Z,96315.47
2023-04-19T09:29:58.297Z,96301.56
2023-04-19T09:32:25.517Z,96299.81
2023-04-19T09:34:57.047Z,96293.66
2023-04-19T09:39:53.981Z,96289.09
2023-04-19T09:42:35.976Z,96284.00
2023-04-19T09:47:39.628Z,96266.88
2023-04-19T09:52:40.046Z,96259.44
2023-04-19T09:55:14.648Z,96263.31
2023-04-19T09:57:52.871Z,96247.34
2023-04-19T10:00:21.727Z,96243.13
2023-04-19T10:02:55.908Z,96250.09
2023-04-19T10:05:24.128Z,96247.69
2023-04-19T10:07:51.078Z,96249.56
2023-04-19T10:10:21.001Z,96239.66
2023-04-19T10:13:11.583Z,96239.50
2023-04-19T10:15:50.134Z,96240.91
2023-04-19T10:18:19.608Z,96236.81
2023-04-19T10:21:07.408Z,96230.34
2023-04-19T10:23:34.702Z,96224.84
2023-04-19T10:26:01.155Z,96214.00
2023-04-19T10:28:31.011Z,96220.16
2023-04-19T10:31:01.764Z,96215.47
2023-04-19T10:33:34.701Z,96220.50
2023-04-19T10:36:02.112Z,96203.44
2023-04-19T10:38:37.263Z,96219.72
2023-04-19T10:41:05.376Z,96212.78
2023-04-19T10:43:34.273Z,96216.03
2023-04-19T10:46:20.993Z,96226.63
2023-04-19T10:48:54.028Z,96224.34
2023-04-19T10:51:23.442Z,96225.38
2023-04-19T10:53:54.138Z,96220.13
2023-04-19T10:57:02.792Z,96198.22
2023-04-19T10:59:31.161Z,96200.09
2023-04-19T11:02:03.221Z,96197.00
2023-04-19T11:04:29.797Z,96193.59
2023-04-19T11:07:03.836Z,96197.09
2023-04-19T11:09:34.695Z,96192.25
2023-04-19T11:12:22.591Z,96195.88
2023-04-19T11:14:54.396Z,96193.66
2023-04-19T11:17:25.939Z,96190.53
2023-04-19T11:20:03.510Z,96193.44
2023-04-19T11:22:34.200Z,96195.06
2023-04-19T11:25:06.759Z,96188.59
2023-04-19T11:27:34.229Z,96179.44
2023-04-19T11:30:12.304Z,96186.09
2023-04-19T11:32:54.402Z,96170.56
2023-04-19T11:35:21.996Z,96172.44
2023-04-19T11:37:48.996Z,96171.19
2023-04-19T11:40:18.580Z,96173.72
2023-04-19T11:42:45.563Z,96158.91
2023-04-19T11:45:29.470Z,96156.81
2023-04-19T11:47:58.375Z,96158.16
2023-04-19T11:50:33.905Z,96151.16
2023-04-19T11:53:16.640Z,96140.22
2023-04-19T11:55:45.175Z,96132.91
2023-04-19T11:58:36.299Z,96136.63
2023-04-19T12:01:11.360Z,96131.28
2023-04-19T12:03:45.632Z,96126.91
2023-04-19T12:06:14.738Z,96132.22
2023-04-19T12:08:49.257Z,96123.66
2023-04-19T12:11:18.854Z,96129.94
2023-04-19T12:13:45.611Z,96126.06
2023-04-19T12:16:13.409Z,96120.50
2023-04-19T12:18:51.186Z,96118.25
2023-04-19T12:21:32.964Z,96122.75
2023-04-19T12:24:01.741Z,96104.34
2023-04-19T12:26:29.617Z,96116.81
2023-04-19T12:28:57.687Z,96101.69
2023-04-19T12:31:24.476Z,96104.88
2023-04-19T12:33:51.105Z,96104.09
2023-04-19T12:36:17.570Z,96103.78
2023-04-19T12:38:44.071Z,96106.06
2023-04-19T12:41:11.243Z,96102.19
2023-04-19T12:43:37.697Z,96101.22
2023-04-19T12:46:05.204Z,96103.16
2023-04-19T12:48:31.719Z,96099.28
2023-04-19T12:50:58.195Z,96097.66
2023-04-19T12:53:25.235Z,96100.59
2023-04-19T12:55:51.832Z,96093.63
2023-04-19T12:58:21.184Z,96093.94
2023-04-19T13:00:47.660Z,96093.94
2023-04-19T13:03:14.312Z,96089.59
2023-04-19T13:05:41.002Z,96087.16
2023-04-19T13:08:07.499Z,96090.56
2023-04-19T13:10:33.977Z,96084.06
2023-04-19T13:13:00.777Z,96080.84
2023-04-19T13:15:28.631Z,96069.00
2023-04-19T13:17:55.681Z,96064.78
2023-04-19T13:20:22.294Z,96068.16
2023-04-19T13:22:48.894Z,96054.88
2023-04-19T13:25:15.377Z,96051.44
2023-04-19T13:27:41.806Z,96052.00
2023-04-19T13:30:08.712Z,96041.91
2023-04-19T13:32:35.266Z,96032.72
2023-04-19T13:35:01.887Z,96027.03
2023-04-19T13:37:28.586Z,96031.00
2023-04-19T13:40:03.980Z,96018.25
2023-04-19T13:42:37.555Z,96020.06
2023-04-19T13:45:04.599Z,96025.91
2023-04-19T13:47:31.179Z,96017.47
2023-04-19T13:49:57.694Z,96021.34
2023-04-19T13:52:24.288Z,96029.13
2023-04-19T13:54:50.845Z,96014.56
2023-04-19T13:57:17.356Z,96016.53
2023-04-19T13:59:43.849Z,96002.44
2023-04-19T14:02:10.373Z,96012.00
2023-04-19T14:04:37.010Z,96005.00
2023-04-19T14:07:03.597Z,96008.00
2023-04-19T14:09:30.112Z,95995.31
2023-04-19T14:11:56.693Z,95998.94
2023-04-19T14:14:23.122Z,95992.75
2023-04-19T14:16:49.725Z,95986.44
2023-04-19T14:19:16.339Z,95984.13
2023-04-19T14:21:42.796Z,95978.22
2023-04-19T14:24:09.252Z,95981.41
2023-04-19T14:26:35.949Z,95984.31
2023-04-19T14:29:02.503Z,95970.38
2023-04-19T14:31:29.463Z,95979.84
2023-04-19T14:33:56.641Z,95969.88
2023-04-19T14:36:23.138Z,95953.25
2023-04-19T14:38:49.577Z,95962.41
2023-04-19T14:41:16.056Z,95953.19
2023-04-19T14:43:42.574Z,95955.53
2023-04-19T14:46:09.166Z,95957.13
2023-04-19T14:48:35.711Z,95947.72
2023-04-19T14:51:02.153Z,95940.56
2023-04-19T14:53:28.678Z,95947.94
2023-04-19T14:55:55.440Z,95941.44
2023-04-19T14:58:21.996Z,95932.00
2023-04-19T15:00:48.493Z,95922.53
2023-04-19T15:03:15.235Z,95927.63
2023-04-19T15:05:41.995Z,95922.94
2023-04-19T15:08:17.329Z,95918.22
2023-04-19T15:10:50.177Z,95914.66
2023-04-19T15:13:16.609Z,95908.72
2023-04-19T15:15:43.142Z,95907.53
2023-04-19T15:18:09.845Z,95907.66
2023-04-19T15:20:36.377Z,95901.25
2023-04-19T15:23:02.861Z,95900.81
2023-04-19T15:25:29.446Z,95896.88
2023-04-19T15:27:55.933Z,95903.84
2023-04-19T15:30:22.412Z,95895.91
2023-04-19T15:32:49.032Z,95888.91
2023-04-19T15:35:15.817Z,95893.34
2023-04-19T15:37:43.796Z,95888.00
2023-04-19T15:40:13.036Z,95867.59
2023-04-19T15:42:39.643Z,95881.06
2023-04-19T15:45:07.160Z,95886.16
2023-04-19T15:47:34.402Z,95892.13
2023-04-19T15:50:01.327Z,95890.16
2023-04-19T15:52:27.739Z,95884.44
2023-04-19T15:54:54.270Z,95882.09
2023-04-19T15:57:20.701Z,95884.84
2023-04-19T15:59:47.153Z,95892.13
2023-04-19T16:02:13.732Z,95886.63
2023-04-19T16:04:40.469Z,95873.13
2023-04-19T16:07:07.087Z,95882.03
2023-04-19T16:09:33.564Z,95879.97
2023-04-19T16:12:00.732Z,95874.03
2023-04-19T16:14:27.198Z,95886.78
2023-04-19T16:16:53.869Z,95885.69
2023-04-19T16:19:23.143Z,95884.84
2023-04-19T16:21:49.908Z,95883.97
2023-04-19T16:24:16.419Z,95878.81
2023-04-19T16:26:42.885Z,95883.09
2023-04-19T16:29:09.348Z,95873.75
2023-04-19T16:31:35.961Z,95879.22
2023-04-19T16:34:02.578Z,95880.56
2023-04-19T16:36:29.306Z,95868.38
2023-04-19T16:38:55.766Z,95878.53
2023-04-19T16:41:22.195Z,95886.31
2023-04-19T16:43:48.653Z,95875.44
2023-04-19T16:46:15.403Z,95877.72
2023-04-19T16:48:41.947Z,95868.72
2023-04-19T16:51:08.413Z,95862.16
2023-04-19T16:53:34.995Z,95873.28
2023-04-19T16:56:03.552Z,95885.88
2023-04-19T16:58:30.917Z,95867.50
2023-04-19T17:00:58.292Z,95869.81
2023-04-19T17:03:24.996Z,95874.75
2023-04-19T17:05:51.501Z,95876.44
2023-04-19T17:08:17.945Z,95871.69
2023-04-19T17:10:44.438Z,95869.13
2023-04-19T17:13:10.944Z,95869.50
2023-04-19T17:15:38.608Z,95874.25
2023-04-19T17:18:05.586Z,95871.03
2023-04-19T17:20:33.283Z,95871.72
2023-04-19T17:22:59.726Z,95865.09
2023-04-19T17:25:26.213Z,95869.31
2023-04-19T17:27:52.686Z,95869.66
2023-04-19T17:30:19.246Z,95866.09
2023-04-19T17:32:45.898Z,95871.28
2023-04-19T17:35:12.682Z,95875.16
2023-04-19T17:37:39.321Z,95874.34
2023-04-19T17:40:06.811Z,95877.63
2023-04-19T17:42:33.394Z,95879.72
2023-04-19T17:45:00.311Z,95873.91
2023-04-19T17:47:26.992Z,95882.28
2023-04-19T17:49:53.569Z,95884.09
2023-04-19T17:52:20.099Z,95885.72
2023-04-19T17:54:48.105Z,95883.41
2023-04-19T17:57:14.621Z,95886.97
2023-04-19T17:59:41.136Z,95882.13
2023-04-19T18:02:10.285Z,95877.56
2023-04-19T18:04:37.269Z,95888.50
2023-04-19T18:07:03.806Z,95889.78
2023-04-19T18:09:30.391Z,95885.75
2023-04-19T18:11:57.793Z,95884.53
2023-04-19T18:14:24.234Z,95886.31
2023-04-19T18:16:50.685Z,95883.56
2023-04-19T18:19:17.353Z,95886.44
2023-04-19T18:21:44.000Z,95891.06
2023-04-19T18:24:10.479Z,95892.81
2023-04-19T18:26:39.194Z,95902.97
2023-04-19T18:29:05.653Z,95894.25
2023-04-19T18:31:32.184Z,95905.06
2023-04-19T18:33:59.159Z,95902.97
2023-04-19T18:36:25.877Z,95903.72
2023-04-19T18:38:52.312Z,95901.31
2023-04-19T18:41:18.781Z,95909.03
2023-04-19T18:43:59.807Z,95907.97
2023-04-19T18:46:32.032Z,95910.94
2023-04-19T18:48:58.501Z,95906.09
2023-04-19T18:51:26.711Z,95913.25
2023-04-19T18:53:53.328Z,95926.00
2023-04-19T18:56:19.786Z,95921.16
2023-04-19T18:58:46.438Z,95936.72
2023-04-19T19:01:12.969Z,95926.13
2023-04-19T19:04:07.832Z,95930.09
2023-04-19T19:06:26.696Z,95932.06
2023-04-19T19:08:54.982Z,95934.63
2023-04-19T19:11:47.137Z,95938.88
2023-04-19T19:14:08.643Z,95940.28
2023-04-19T19:19:06.944Z,95944.78
2023-04-19T19:21:33.423Z,95941.34
2023-04-19T19:23:59.886Z,95949.16
2023-04-19T19:26:26.395Z,95945.31
2023-04-19T19:28:53.533Z,95951.88
2023-04-19T19:31:20.041Z,95946.22
2023-04-19T19:33:57.000Z,95958.19
2023-04-19T19:36:33.682Z,95959.41
2023-04-19T19:39:00.421Z,95956.56
2023-04-19T19:41:56.380Z,95952.91
2023-04-19T19:44:13.385Z,95950.66
2023-04-19T19:46:39.910Z,95953.88
2023-04-19T19:49:06.720Z,95956.09
2023-04-19T19:54:02.984Z,95965.00
2023-04-19T19:56:29.492Z,95956.69
2023-04-19T19:58:57.493Z,95965.28
2023-04-19T20:01:24.321Z,95968.94
2023-04-19T20:03:51.285Z,95963.75
2023-04-19T20:07:07.536Z,95959.91
2023-04-19T20:09:04.574Z,95959.50
2023-04-19T20:11:31.274Z,95971.22
2023-04-19T20:13:57.927Z,95968.06
2023-04-19T20:16:24.486Z,95970.97
2023-04-19T20:18:50.959Z,95971.19
2023-04-19T20:21:17.845Z,95969.94
2023-04-19T20:23:44.356Z,95974.97
2023-04-19T20:26:10.794Z,95975.84
2023-04-19T20:28:37.240Z,95971.13
2023-04-19T20:31:03.746Z,95973.09
2023-04-19T20:33:30.254Z,95979.44
2023-04-19T20:35:59.564Z,95974.50
2023-04-19T20:38:28.930Z,95973.41
2023-04-19T20:40:56.526Z,95976.72
2023-04-19T20:43:22.987Z,95971.84
2023-04-19T20:45:49.681Z,95975.47
2023-04-19T20:48:17.589Z,95976.00
2023-04-19T20:50:44.151Z,95971.94
2023-04-19T20:53:10.806Z,95980.78
2023-04-19T20:55:38.256Z,95976.28
2023-04-19T20:58:04.783Z,95980.44
2023-04-19T21:00:31.296Z,95979.63
2023-04-19T21:02:57.852Z,95968.66
2023-04-19T21:05:24.546Z,95972.25
2023-04-19T21:07:51.112Z,95977.59
2023-04-19T21:10:21.626Z,95970.56
2023-04-19T21:12:48.796Z,95973.28
2023-04-19T21:15:15.664Z,95969.72
2023-04-19T21:17:42.390Z,95970.63
2023-04-19T21:20:13.499Z,95969.72
2023-04-19T21:22:41.197Z,95977.84
2023-04-19T21:25:08.515Z,95975.53
2023-04-19T21:27:36.517Z,95970.81
2023-04-19T21:30:04.292Z,95980.16
2023-04-19T21:32:31.122Z,95981.91
2023-04-19T21:34:59.121Z,95965.63
2023-04-19T21:37:25.594Z,95966.16
2023-04-19T21:39:52.227Z,95967.31
2023-04-19T21:42:18.956Z,95969.50
2023-04-19T21:44:45.888Z,95967.44
2023-04-19T21:47:12.658Z,95961.97
2023-04-19T21:49:39.423Z,95973.69
2023-04-19T21:52:06.772Z,95966.72
2023-04-19T21:54:34.474Z,95973.41
2023-04-19T21:57:01.891Z,95958.09
2023-04-19T21:59:29.667Z,95978.56
2023-04-19T22:01:56.129Z,95984.81
2023-04-19T22:04:22.817Z,95969.16
2023-04-19T22:06:49.523Z,95969.69
2023-04-19T22:09:16.310Z,95963.47
2023-04-19T22:11:43.281Z,95975.59
2023-04-19T22:14:09.803Z,95974.31
2023-04-19T22:16:36.255Z,95974.88
2023-04-19T22:19:03.479Z,95966.47
2023-04-19T22:21:31.182Z,95970.34
2023-04-19T22:23:57.649Z,95972.78
2023-04-19T22:26:26.139Z,95964.81
2023-04-19T22:28:54.414Z,95963.53
2023-04-19T22:31:20.911Z,95955.78
2023-04-19T22:33:47.367Z,95966.00
2023-04-19T22:36:13.849Z,95958.69
2023-04-19T22:38:40.552Z,95952.34
2023-04-19T22:41:06.980Z,95950.69
2023-04-19T22:43:33.416Z,95945.00
2023-04-19T22:46:00.068Z,95945.28
2023-04-19T22:48:28.034Z,95953.47
2023-04-19T22:50:54.492Z,95955.16
2023-04-19T22:53:21.087Z,95946.94
2023-04-19T22:55:47.905Z,95944.47
2023-04-19T22:58:14.351Z,95942.38
2023-04-19T23:00:40.953Z,95941.59
2023-04-19T23:03:07.501Z,95947.31
2023-04-19T23:05:33.966Z,95933.88
2023-04-19T23:08:00.472Z,95933.53
2023-04-19T23:10:27.022Z,95941.41
2023-04-19T23:12:57.327Z,95927.28
2023-04-19T23:15:24.841Z,95925.47
2023-04-19T23:17:52.507Z,95920.94
2023-04-19T23:20:19.093Z,95915.78
2023-04-19T23:22:45.582Z,95909.88
2023-04-19T23:25:12.069Z,95917.44
2023-04-19T23:27:38.593Z,95911.25
2023-04-19T23:30:07.642Z,95921.09
2023-04-19T23:32:34.162Z,95920.91
2023-04-19T23:35:00.786Z,95916.34
2023-04-19T23:37:27.217Z,95912.56
2023-04-19T23:39:53.669Z,95912.84
2023-04-19T23:42:20.456Z,95914.19
2023-04-19T23:44:46.941Z,95910.41
2023-04-19T23:47:13.400Z,95901.47
2023-04-19T23:49:39.842Z,95898.28
2023-04-19T23:52:06.416Z,95897.53
2023-04-19T23:54:32.932Z,95900.81
2023-04-19T23:56:59.567Z,95902.22
2023-04-19T23:59:29.067Z,95896.06
